sensor_id;sensor_type;location;lat;lon;timestamp;pressure;altitude;pressure_sealevel;temperature;humidity
34696;BME280;20918;51.138;17.370;2023-03-18T00:01:01;100163.17;;;2.88;51.54
34696;BME280;20918;51.138;17.370;2023-03-18T00:04:03;100163.11;;;2.84;51.63
34696;BME280;20918;51.138;17.370;2023-03-18T00:07:03;100156.75;;;2.81;51.50
34696;BME280;20918;51.138;17.370;2023-03-18T00:13:15;100151.73;;;2.71;51.89
34696;BME280;20918;51.138;17.370;2023-03-18T00:16:17;100146.56;;;2.65;51.81
34696;BME280;20918;51.138;17.370;2023-03-18T00:19:19;100144.25;;;2.61;51.87
34696;BME280;20918;51.138;17.370;2023-03-18T00:22:19;100146.04;;;2.58;52.08
34696;BME280;20918;51.138;17.370;2023-03-18T00:28:39;100140.29;;;2.53;52.11
34696;BME280;20918;51.138;17.370;2023-03-18T00:31:42;100133.05;;;2.50;52.19
34696;BME280;20918;51.138;17.370;2023-03-18T00:34:44;100133.51;;;2.46;52.49
34696;BME280;20918;51.138;17.370;2023-03-18T00:37:44;100137.50;;;2.42;52.60
34696;BME280;20918;51.138;17.370;2023-03-18T00:40:48;100134.38;;;2.37;52.62
34696;BME280;20918;51.138;17.370;2023-03-18T00:44:10;100129.80;;;2.33;52.55
34696;BME280;20918;51.138;17.370;2023-03-18T00:47:16;100130.23;;;2.29;52.74
34696;BME280;20918;51.138;17.370;2023-03-18T00:50:17;100126.33;;;2.28;52.75
34696;BME280;20918;51.138;17.370;2023-03-18T00:53:20;100125.34;;;2.24;52.81
34696;BME280;20918;51.138;17.370;2023-03-18T00:56:23;100129.40;;;2.23;52.72
34696;BME280;20918;51.138;17.370;2023-03-18T00:59:27;100128.16;;;2.24;52.68
34696;BME280;20918;51.138;17.370;2023-03-18T01:02:29;100133.95;;;2.23;52.87
34696;BME280;20918;51.138;17.370;2023-03-18T01:05:34;100140.59;;;2.23;52.89
34696;BME280;20918;51.138;17.370;2023-03-18T01:08:37;100136.02;;;2.21;52.85
34696;BME280;20918;51.138;17.370;2023-03-18T01:11:37;100134.35;;;2.20;52.87
34696;BME280;20918;51.138;17.370;2023-03-18T01:14:38;100129.62;;;2.18;53.03
34696;BME280;20918;51.138;17.370;2023-03-18T01:17:39;100130.09;;;2.17;52.89
34696;BME280;20918;51.138;17.370;2023-03-18T01:20:39;100131.98;;;2.12;53.06
34696;BME280;20918;51.138;17.370;2023-03-18T01:23:41;100130.61;;;2.07;53.10
34696;BME280;20918;51.138;17.370;2023-03-18T01:26:41;100134.03;;;2.06;53.20
34696;BME280;20918;51.138;17.370;2023-03-18T01:29:43;100133.04;;;2.05;53.20
34696;BME280;20918;51.138;17.370;2023-03-18T01:32:48;100136.51;;;2.03;53.22
34696;BME280;20918;51.138;17.370;2023-03-18T01:35:53;100133.98;;;2.01;53.20
34696;BME280;20918;51.138;17.370;2023-03-18T01:38:56;100131.90;;;1.99;53.13
34696;BME280;20918;51.138;17.370;2023-03-18T01:41:59;100132.39;;;1.97;53.23
34696;BME280;20918;51.138;17.370;2023-03-18T01:45:11;100132.09;;;1.94;53.39
34696;BME280;20918;51.138;17.370;2023-03-18T01:48:14;100137.28;;;1.92;53.43
34696;BME280;20918;51.138;17.370;2023-03-18T01:51:16;100132.37;;;1.90;53.43
34696;BME280;20918;51.138;17.370;2023-03-18T01:54:17;100133.52;;;1.84;53.56
34696;BME280;20918;51.138;17.370;2023-03-18T01:57:18;100134.77;;;1.76;53.58
34696;BME280;20918;51.138;17.370;2023-03-18T02:00:41;100140.25;;;1.68;53.74
34696;BME280;20918;51.138;17.370;2023-03-18T02:03:43;100139.78;;;1.60;53.96
34696;BME280;20918;51.138;17.370;2023-03-18T02:06:45;100139.00;;;1.49;54.12
34696;BME280;20918;51.138;17.370;2023-03-18T02:09:49;100139.36;;;1.41;54.22
34696;BME280;20918;51.138;17.370;2023-03-18T02:12:57;100138.61;;;1.34;54.48
34696;BME280;20918;51.138;17.370;2023-03-18T02:16:05;100130.73;;;1.25;54.68
34696;BME280;20918;51.138;17.370;2023-03-18T02:22:42;100137.05;;;1.17;54.88
34696;BME280;20918;51.138;17.370;2023-03-18T02:25:50;100132.98;;;1.15;54.89
34696;BME280;20918;51.138;17.370;2023-03-18T02:28:52;100132.92;;;1.13;55.03
34696;BME280;20918;51.138;17.370;2023-03-18T02:32:04;100131.99;;;1.09;55.24
34696;BME280;20918;51.138;17.370;2023-03-18T02:35:13;100132.09;;;1.00;55.21
34696;BME280;20918;51.138;17.370;2023-03-18T02:38:14;100129.66;;;1.00;55.19
34696;BME280;20918;51.138;17.370;2023-03-18T02:41:17;100132.45;;;1.02;55.65
34696;BME280;20918;51.138;17.370;2023-03-18T02:44:19;100131.90;;;1.05;55.66
34696;BME280;20918;51.138;17.370;2023-03-18T02:47:40;100132.51;;;1.07;55.75
34696;BME280;20918;51.138;17.370;2023-03-18T02:50:44;100137.65;;;1.03;55.94
34696;BME280;20918;51.138;17.370;2023-03-18T02:54:08;100137.64;;;1.00;56.00
34696;BME280;20918;51.138;17.370;2023-03-18T02:57:09;100136.08;;;1.00;56.05
34696;BME280;20918;51.138;17.370;2023-03-18T03:00:12;100142.30;;;1.01;56.09
34696;BME280;20918;51.138;17.370;2023-03-18T03:03:13;100141.63;;;1.01;56.22
34696;BME280;20918;51.138;17.370;2023-03-18T03:06:14;100139.35;;;1.01;56.42
34696;BME280;20918;51.138;17.370;2023-03-18T03:09:15;100136.54;;;0.96;56.59
34696;BME280;20918;51.138;17.370;2023-03-18T03:12:17;100134.13;;;0.93;56.46
34696;BME280;20918;51.138;17.370;2023-03-18T03:15:22;100136.80;;;0.93;56.63
34696;BME280;20918;51.138;17.370;2023-03-18T03:18:27;100142.30;;;0.96;56.60
34696;BME280;20918;51.138;17.370;2023-03-18T03:21:29;100141.93;;;1.01;56.60
34696;BME280;20918;51.138;17.370;2023-03-18T03:24:37;100136.34;;;1.07;56.65
34696;BME280;20918;51.138;17.370;2023-03-18T03:27:37;100134.93;;;1.10;56.61
34696;BME280;20918;51.138;17.370;2023-03-18T03:30:38;100135.06;;;1.12;56.53
34696;BME280;20918;51.138;17.370;2023-03-18T03:33:39;100133.79;;;1.16;56.51
34696;BME280;20918;51.138;17.370;2023-03-18T03:36:41;100135.94;;;1.20;56.65
34696;BME280;20918;51.138;17.370;2023-03-18T03:39:44;100133.85;;;1.25;56.70
34696;BME280;20918;51.138;17.370;2023-03-18T03:42:48;100137.42;;;1.28;56.71
34696;BME280;20918;51.138;17.370;2023-03-18T03:45:58;100141.09;;;1.31;56.81
34696;BME280;20918;51.138;17.370;2023-03-18T03:49:07;100140.25;;;1.33;56.57
34696;BME280;20918;51.138;17.370;2023-03-18T03:52:08;100143.38;;;1.36;56.60
34696;BME280;20918;51.138;17.370;2023-03-18T03:55:10;100146.88;;;1.38;56.70
34696;BME280;20918;51.138;17.370;2023-03-18T03:58:11;100145.67;;;1.41;56.51
34696;BME280;20918;51.138;17.370;2023-03-18T04:01:13;100146.67;;;1.44;56.65
34696;BME280;20918;51.138;17.370;2023-03-18T04:04:14;100145.39;;;1.47;56.63
34696;BME280;20918;51.138;17.370;2023-03-18T04:07:16;100147.02;;;1.51;56.66
34696;BME280;20918;51.138;17.370;2023-03-18T04:10:34;100141.21;;;1.54;56.55
34696;BME280;20918;51.138;17.370;2023-03-18T04:13:40;100143.14;;;1.57;56.46
34696;BME280;20918;51.138;17.370;2023-03-18T04:16:41;100143.73;;;1.58;56.72
34696;BME280;20918;51.138;17.370;2023-03-18T04:19:42;100138.52;;;1.61;56.60
34696;BME280;20918;51.138;17.370;2023-03-18T04:22:46;100144.94;;;1.63;56.76
34696;BME280;20918;51.138;17.370;2023-03-18T04:25:47;100147.23;;;1.65;56.88
34696;BME280;20918;51.138;17.370;2023-03-18T04:28:48;100149.89;;;1.67;56.78
34696;BME280;20918;51.138;17.370;2023-03-18T04:31:54;100155.52;;;1.71;56.93
34696;BME280;20918;51.138;17.370;2023-03-18T04:38:20;100160.21;;;1.82;56.31
34696;BME280;20918;51.138;17.370;2023-03-18T04:41:42;100157.14;;;1.88;56.27
34696;BME280;20918;51.138;17.370;2023-03-18T04:45:06;100164.14;;;1.93;56.35
34696;BME280;20918;51.138;17.370;2023-03-18T04:48:07;100161.20;;;1.94;56.40
34696;BME280;20918;51.138;17.370;2023-03-18T04:51:11;100163.73;;;1.96;56.31
34696;BME280;20918;51.138;17.370;2023-03-18T04:54:17;100163.95;;;1.97;56.32
34696;BME280;20918;51.138;17.370;2023-03-18T04:57:18;100164.18;;;1.99;56.42
34696;BME280;20918;51.138;17.370;2023-03-18T05:00:23;100162.04;;;2.00;56.45
34696;BME280;20918;51.138;17.370;2023-03-18T05:03:29;100161.54;;;1.99;56.52
34696;BME280;20918;51.138;17.370;2023-03-18T05:06:31;100163.48;;;2.01;56.33
34696;BME280;20918;51.138;17.370;2023-03-18T05:09:42;100164.19;;;2.06;56.24
34696;BME280;20918;51.138;17.370;2023-03-18T05:12:43;100164.95;;;2.13;56.20
34696;BME280;20918;51.138;17.370;2023-03-18T05:15:45;100163.45;;;2.19;56.16
34696;BME280;20918;51.138;17.370;2023-03-18T05:18:45;100162.35;;;2.24;56.16
34696;BME280;20918;51.138;17.370;2023-03-18T05:21:46;100165.14;;;2.36;55.84
34696;BME280;20918;51.138;17.370;2023-03-18T05:24:47;100168.85;;;2.64;55.80
34696;BME280;20918;51.138;17.370;2023-03-18T05:27:49;100168.33;;;2.89;55.32
34696;BME280;20918;51.138;17.370;2023-03-18T05:31:04;100173.17;;;2.97;54.50
34696;BME280;20918;51.138;17.370;2023-03-18T05:34:06;100173.12;;;2.98;54.66
34696;BME280;20918;51.138;17.370;2023-03-18T05:37:11;100172.96;;;3.00;54.39
34696;BME280;20918;51.138;17.370;2023-03-18T05:40:17;100169.30;;;3.02;54.52
34696;BME280;20918;51.138;17.370;2023-03-18T05:43:27;100169.42;;;3.03;54.63
34696;BME280;20918;51.138;17.370;2023-03-18T05:46:30;100168.31;;;3.01;54.43
34696;BME280;20918;51.138;17.370;2023-03-18T05:49:47;100173.11;;;3.02;54.47
34696;BME280;20918;51.138;17.370;2023-03-18T05:52:52;100177.14;;;3.04;54.40
34696;BME280;20918;51.138;17.370;2023-03-18T05:55:56;100174.27;;;3.08;54.37
34696;BME280;20918;51.138;17.370;2023-03-18T05:58:57;100177.80;;;3.10;54.58
34696;BME280;20918;51.138;17.370;2023-03-18T06:02:18;100175.94;;;3.13;54.47
34696;BME280;20918;51.138;17.370;2023-03-18T06:05:19;100175.80;;;3.18;54.29
34696;BME280;20918;51.138;17.370;2023-03-18T06:08:20;100174.23;;;3.22;53.84
34696;BME280;20918;51.138;17.370;2023-03-18T06:11:21;100171.71;;;3.30;54.16
34696;BME280;20918;51.138;17.370;2023-03-18T06:14:24;100170.21;;;3.40;53.94
34696;BME280;20918;51.138;17.370;2023-03-18T06:17:29;100178.33;;;3.52;53.73
34696;BME280;20918;51.138;17.370;2023-03-18T06:20:30;100178.33;;;3.64;53.78
34696;BME280;20918;51.138;17.370;2023-03-18T06:23:31;100178.65;;;3.75;53.44
34696;BME280;20918;51.138;17.370;2023-03-18T06:26:33;100177.52;;;3.85;53.51
34696;BME280;20918;51.138;17.370;2023-03-18T06:29:35;100178.67;;;3.97;53.50
34696;BME280;20918;51.138;17.370;2023-03-18T06:32:42;100187.23;;;4.08;53.20
34696;BME280;20918;51.138;17.370;2023-03-18T06:35:43;100182.67;;;4.15;52.95
34696;BME280;20918;51.138;17.370;2023-03-18T06:38:44;100181.79;;;4.17;53.00
34696;BME280;20918;51.138;17.370;2023-03-18T06:41:45;100176.77;;;4.21;52.93
34696;BME280;20918;51.138;17.370;2023-03-18T06:45:22;100182.17;;;4.25;53.01
34696;BME280;20918;51.138;17.370;2023-03-18T06:48:27;100183.52;;;4.28;52.54
34696;BME280;20918;51.138;17.370;2023-03-18T06:51:29;100182.77;;;4.33;52.91
34696;BME280;20918;51.138;17.370;2023-03-18T06:54:30;100184.27;;;4.40;52.91
34696;BME280;20918;51.138;17.370;2023-03-18T06:57:34;100186.02;;;4.49;52.58
34696;BME280;20918;51.138;17.370;2023-03-18T07:00:35;100180.79;;;4.57;52.59
34696;BME280;20918;51.138;17.370;2023-03-18T07:03:37;100182.25;;;4.67;52.59
34696;BME280;20918;51.138;17.370;2023-03-18T07:06:41;100191.59;;;4.79;52.49
34696;BME280;20918;51.138;17.370;2023-03-18T07:09:43;100192.32;;;4.95;52.18
34696;BME280;20918;51.138;17.370;2023-03-18T07:12:44;100194.41;;;5.15;52.05
34696;BME280;20918;51.138;17.370;2023-03-18T07:15:46;100196.54;;;5.35;51.82
34696;BME280;20918;51.138;17.370;2023-03-18T07:18:47;100201.53;;;5.58;51.42
34696;BME280;20918;51.138;17.370;2023-03-18T07:21:48;100201.09;;;5.81;51.24
34696;BME280;20918;51.138;17.370;2023-03-18T07:24:50;100201.85;;;6.09;51.61
34696;BME280;20918;51.138;17.370;2023-03-18T07:27:51;100198.81;;;6.37;50.94
34696;BME280;20918;51.138;17.370;2023-03-18T07:30:52;100204.84;;;6.64;50.87
34696;BME280;20918;51.138;17.370;2023-03-18T07:33:53;100198.27;;;6.90;50.33
34696;BME280;20918;51.138;17.370;2023-03-18T07:36:55;100196.88;;;7.11;50.43
34696;BME280;20918;51.138;17.370;2023-03-18T07:39:55;100201.75;;;7.30;49.80
34696;BME280;20918;51.138;17.370;2023-03-18T07:42:56;100199.73;;;7.44;48.89
34696;BME280;20918;51.138;17.370;2023-03-18T07:45:57;100195.21;;;7.55;49.58
34696;BME280;20918;51.138;17.370;2023-03-18T07:49:00;100193.27;;;7.79;48.87
34696;BME280;20918;51.138;17.370;2023-03-18T07:52:01;100190.66;;;7.88;47.75
34696;BME280;20918;51.138;17.370;2023-03-18T07:55:01;100196.09;;;7.94;47.91
34696;BME280;20918;51.138;17.370;2023-03-18T07:58:02;100190.46;;;8.02;46.30
34696;BME280;20918;51.138;17.370;2023-03-18T08:01:04;100193.59;;;8.10;46.39
34696;BME280;20918;51.138;17.370;2023-03-18T08:04:05;100191.33;;;8.19;45.96
34696;BME280;20918;51.138;17.370;2023-03-18T08:07:05;100198.44;;;8.31;45.42
34696;BME280;20918;51.138;17.370;2023-03-18T08:10:06;100203.41;;;8.40;44.72
34696;BME280;20918;51.138;17.370;2023-03-18T08:13:08;100204.50;;;8.54;45.00
34696;BME280;20918;51.138;17.370;2023-03-18T08:16:09;100199.86;;;8.64;43.76
34696;BME280;20918;51.138;17.370;2023-03-18T08:19:09;100203.06;;;8.79;44.89
34696;BME280;20918;51.138;17.370;2023-03-18T08:22:10;100206.54;;;9.06;43.67
34696;BME280;20918;51.138;17.370;2023-03-18T08:25:10;100206.76;;;9.23;43.16
34696;BME280;20918;51.138;17.370;2023-03-18T08:28:13;100205.52;;;9.34;42.67
34696;BME280;20918;51.138;17.370;2023-03-18T08:31:14;100207.31;;;9.52;43.36
34696;BME280;20918;51.138;17.370;2023-03-18T08:34:14;100204.23;;;9.72;42.75
34696;BME280;20918;51.138;17.370;2023-03-18T08:37:15;100206.48;;;9.89;41.91
34696;BME280;20918;51.138;17.370;2023-03-18T08:40:17;100208.30;;;9.97;41.32
34696;BME280;20918;51.138;17.370;2023-03-18T08:43:18;100205.08;;;9.91;40.25
34696;BME280;20918;51.138;17.370;2023-03-18T08:46:22;100208.90;;;9.97;40.22
34696;BME280;20918;51.138;17.370;2023-03-18T08:49:23;100209.88;;;10.02;39.30
34696;BME280;20918;51.138;17.370;2023-03-18T08:52:24;100201.79;;;10.09;39.65
34696;BME280;20918;51.138;17.370;2023-03-18T08:55:29;100205.26;;;10.21;39.46
34696;BME280;20918;51.138;17.370;2023-03-18T08:58:30;100205.98;;;10.41;40.30
34696;BME280;20918;51.138;17.370;2023-03-18T09:01:30;100208.04;;;10.65;39.91
34696;BME280;20918;51.138;17.370;2023-03-18T09:04:30;100209.48;;;10.90;40.45
34696;BME280;20918;51.138;17.370;2023-03-18T09:07:34;100206.27;;;11.12;39.33
34696;BME280;20918;51.138;17.370;2023-03-18T09:10:37;100203.69;;;11.00;38.36
34696;BME280;20918;51.138;17.370;2023-03-18T09:13:37;100198.58;;;10.97;39.17
34696;BME280;20918;51.138;17.370;2023-03-18T09:16:38;100199.39;;;11.09;39.60
34696;BME280;20918;51.138;17.370;2023-03-18T09:19:39;100196.23;;;11.13;39.22
34696;BME280;20918;51.138;17.370;2023-03-18T09:22:43;100193.38;;;11.20;39.58
34696;BME280;20918;51.138;17.370;2023-03-18T09:25:47;100193.16;;;11.42;40.02
34696;BME280;20918;51.138;17.370;2023-03-18T09:28:49;100190.16;;;11.73;38.51
34696;BME280;20918;51.138;17.370;2023-03-18T09:31:50;100189.24;;;11.93;38.62
34696;BME280;20918;51.138;17.370;2023-03-18T09:34:51;100186.08;;;12.00;37.47
34696;BME280;20918;51.138;17.370;2023-03-18T09:37:54;100188.38;;;12.00;36.74
34696;BME280;20918;51.138;17.370;2023-03-18T09:44:20;100187.67;;;12.19;36.07
34696;BME280;20918;51.138;17.370;2023-03-18T09:50:45;100186.49;;;12.28;36.20
34696;BME280;20918;51.138;17.370;2023-03-18T09:54:37;100179.59;;;12.51;36.48
34696;BME280;20918;51.138;17.370;2023-03-18T09:57:44;100181.84;;;12.63;34.95
34696;BME280;20918;51.138;17.370;2023-03-18T10:00:46;100182.33;;;12.65;34.65
34696;BME280;20918;51.138;17.370;2023-03-18T10:06:56;100180.23;;;12.55;34.29
34696;BME280;20918;51.138;17.370;2023-03-18T10:13:34;100178.42;;;12.67;33.79
34696;BME280;20918;51.138;17.370;2023-03-18T10:16:43;100177.38;;;12.70;34.70
34696;BME280;20918;51.138;17.370;2023-03-18T10:19:51;100175.29;;;12.83;34.87
34696;BME280;20918;51.138;17.370;2023-03-18T10:23:05;100178.98;;;12.98;34.47
34696;BME280;20918;51.138;17.370;2023-03-18T10:26:21;100171.52;;;13.12;34.06
34696;BME280;20918;51.138;17.370;2023-03-18T10:35:36;100171.85;;;13.24;33.76
34696;BME280;20918;51.138;17.370;2023-03-18T10:38:40;100171.14;;;13.36;33.52
34696;BME280;20918;51.138;17.370;2023-03-18T10:41:42;100166.41;;;13.47;34.02
34696;BME280;20918;51.138;17.370;2023-03-18T10:44:46;100165.36;;;13.78;34.51
34696;BME280;20918;51.138;17.370;2023-03-18T10:48:09;100162.45;;;14.02;33.91
34696;BME280;20918;51.138;17.370;2023-03-18T10:54:40;100160.02;;;13.86;32.99
34696;BME280;20918;51.138;17.370;2023-03-18T10:57:40;100162.55;;;13.85;32.81
34696;BME280;20918;51.138;17.370;2023-03-18T11:00:41;100158.60;;;13.85;33.26
34696;BME280;20918;51.138;17.370;2023-03-18T11:03:48;100157.98;;;13.92;33.55
34696;BME280;20918;51.138;17.370;2023-03-18T11:07:01;100156.03;;;13.86;32.97
34696;BME280;20918;51.138;17.370;2023-03-18T11:10:10;100154.02;;;13.79;33.10
34696;BME280;20918;51.138;17.370;2023-03-18T11:13:18;100155.78;;;13.82;33.11
34696;BME280;20918;51.138;17.370;2023-03-18T11:22:32;100147.06;;;13.95;33.62
34696;BME280;20918;51.138;17.370;2023-03-18T11:25:33;100140.60;;;14.19;33.84
34696;BME280;20918;51.138;17.370;2023-03-18T11:28:34;100143.75;;;14.47;33.86
34696;BME280;20918;51.138;17.370;2023-03-18T11:31:51;100135.98;;;14.69;33.64
34696;BME280;20918;51.138;17.370;2023-03-18T11:34:54;100132.83;;;14.91;33.58
34696;BME280;20918;51.138;17.370;2023-03-18T11:37:56;100127.23;;;15.02;33.57
34696;BME280;20918;51.138;17.370;2023-03-18T11:41:08;100122.43;;;15.02;33.05
34696;BME280;20918;51.138;17.370;2023-03-18T11:44:18;100123.41;;;14.96;33.13
34696;BME280;20918;51.138;17.370;2023-03-18T11:47:24;100114.30;;;14.88;33.11
34696;BME280;20918;51.138;17.370;2023-03-18T11:50:29;100113.78;;;14.89;33.09
34696;BME280;20918;51.138;17.370;2023-03-18T11:53:45;100114.88;;;14.80;32.62
34696;BME280;20918;51.138;17.370;2023-03-18T12:09:19;100106.08;;;15.09;33.55
34696;BME280;20918;51.138;17.370;2023-03-18T12:18:53;100101.98;;;15.09;32.60
34696;BME280;20918;51.138;17.370;2023-03-18T12:25:06;100091.09;;;14.93;31.83
34696;BME280;20918;51.138;17.370;2023-03-18T12:35:09;100100.80;;;14.71;32.19
34696;BME280;20918;51.138;17.370;2023-03-18T12:38:23;100097.91;;;14.76;32.19
34696;BME280;20918;51.138;17.370;2023-03-18T12:45:08;100098.60;;;14.86;32.08
34696;BME280;20918;51.138;17.370;2023-03-18T12:48:17;100103.20;;;14.78;32.54
34696;BME280;20918;51.138;17.370;2023-03-18T12:51:23;100103.75;;;14.89;33.26
34696;BME280;20918;51.138;17.370;2023-03-18T12:54:43;100103.41;;;15.00;32.95
34696;BME280;20918;51.138;17.370;2023-03-18T12:57:57;100099.48;;;15.13;32.93
34696;BME280;20918;51.138;17.370;2023-03-18T13:01:05;100097.02;;;15.32;32.76
34696;BME280;20918;51.138;17.370;2023-03-18T13:04:20;100097.71;;;15.39;32.03
34696;BME280;20918;51.138;17.370;2023-03-18T13:10:39;100094.88;;;15.41;31.90
34696;BME280;20918;51.138;17.370;2023-03-18T13:13:43;100098.11;;;15.22;30.85
34696;BME280;20918;51.138;17.370;2023-03-18T13:16:45;100100.25;;;15.00;31.58
34696;BME280;20918;51.138;17.370;2023-03-18T13:19:47;100098.89;;;14.87;31.68
34696;BME280;20918;51.138;17.370;2023-03-18T13:26:16;100096.86;;;14.73;31.80
34696;BME280;20918;51.138;17.370;2023-03-18T13:32:38;100092.08;;;14.91;32.29
34696;BME280;20918;51.138;17.370;2023-03-18T13:44:48;100088.97;;;15.17;31.90
34696;BME280;20918;51.138;17.370;2023-03-18T13:47:57;100097.05;;;15.14;31.50
34696;BME280;20918;51.138;17.370;2023-03-18T13:51:12;100091.89;;;15.11;31.92
34696;BME280;20918;51.138;17.370;2023-03-18T13:54:17;100086.52;;;15.08;31.48
34696;BME280;20918;51.138;17.370;2023-03-18T14:00:29;100091.66;;;15.05;31.85
34696;BME280;20918;51.138;17.370;2023-03-18T14:06:46;100090.48;;;14.90;31.00
34696;BME280;20918;51.138;17.370;2023-03-18T14:13:22;100094.40;;;14.78;32.10
34696;BME280;20918;51.138;17.370;2023-03-18T14:16:26;100091.17;;;14.81;32.05
34696;BME280;20918;51.138;17.370;2023-03-18T14:19:27;100086.05;;;14.88;32.54
34696;BME280;20918;51.138;17.370;2023-03-18T14:22:35;100081.93;;;15.01;32.65
34696;BME280;20918;51.138;17.370;2023-03-18T14:25:40;100077.35;;;15.06;31.65
34696;BME280;20918;51.138;17.370;2023-03-18T14:28:49;100075.96;;;14.95;31.53
34696;BME280;20918;51.138;17.370;2023-03-18T14:31:56;100076.11;;;14.90;31.84
34696;BME280;20918;51.138;17.370;2023-03-18T14:38:18;100076.80;;;14.84;32.16
34696;BME280;20918;51.138;17.370;2023-03-18T14:41:29;100075.08;;;14.90;32.35
34696;BME280;20918;51.138;17.370;2023-03-18T14:44:48;100070.00;;;14.99;32.64
34696;BME280;20918;51.138;17.370;2023-03-18T14:48:02;100064.02;;;15.05;32.44
34696;BME280;20918;51.138;17.370;2023-03-18T14:54:27;100065.98;;;14.92;32.69
34696;BME280;20918;51.138;17.370;2023-03-18T14:57:31;100067.23;;;14.84;32.73
34696;BME280;20918;51.138;17.370;2023-03-18T15:00:33;100066.89;;;14.76;32.93
34696;BME280;20918;51.138;17.370;2023-03-18T15:03:37;100063.92;;;14.69;32.95
34696;BME280;20918;51.138;17.370;2023-03-18T15:06:38;100068.77;;;14.67;33.22
34696;BME280;20918;51.138;17.370;2023-03-18T15:09:39;100066.90;;;14.59;32.89
34696;BME280;20918;51.138;17.370;2023-03-18T15:16:16;100070.68;;;14.33;33.37
34696;BME280;20918;51.138;17.370;2023-03-18T15:19:17;100070.06;;;14.24;33.16
34696;BME280;20918;51.138;17.370;2023-03-18T15:22:19;100073.23;;;14.14;33.08
34696;BME280;20918;51.138;17.370;2023-03-18T15:25:25;100074.42;;;14.08;33.21
34696;BME280;20918;51.138;17.370;2023-03-18T15:28:25;100075.48;;;13.99;33.54
34696;BME280;20918;51.138;17.370;2023-03-18T15:31:28;100075.59;;;13.91;33.93
34696;BME280;20918;51.138;17.370;2023-03-18T15:34:29;100072.77;;;13.85;34.08
34696;BME280;20918;51.138;17.370;2023-03-18T15:40:46;100076.78;;;13.80;34.76
34696;BME280;20918;51.138;17.370;2023-03-18T15:43:48;100078.75;;;13.80;35.08
34696;BME280;20918;51.138;17.370;2023-03-18T15:46:52;100085.80;;;13.76;35.02
34696;BME280;20918;51.138;17.370;2023-03-18T15:49:57;100089.52;;;13.72;35.25
34696;BME280;20918;51.138;17.370;2023-03-18T15:53:00;100093.04;;;13.66;35.15
34696;BME280;20918;51.138;17.370;2023-03-18T15:56:17;100093.29;;;13.60;35.50
34696;BME280;20918;51.138;17.370;2023-03-18T15:59:22;100092.64;;;13.54;35.61
34696;BME280;20918;51.138;17.370;2023-03-18T16:02:23;100095.18;;;13.47;35.72
34696;BME280;20918;51.138;17.370;2023-03-18T16:05:25;100094.38;;;13.42;35.87
34696;BME280;20918;51.138;17.370;2023-03-18T16:08:26;100090.10;;;13.35;36.04
34696;BME280;20918;51.138;17.370;2023-03-18T16:11:36;100089.05;;;13.24;36.17
34696;BME280;20918;51.138;17.370;2023-03-18T16:14:41;100091.83;;;13.13;36.15
34696;BME280;20918;51.138;17.370;2023-03-18T16:17:43;100094.02;;;13.00;36.53
34696;BME280;20918;51.138;17.370;2023-03-18T16:20:44;100101.05;;;12.89;36.61
34696;BME280;20918;51.138;17.370;2023-03-18T16:23:47;100102.21;;;12.79;36.69
34696;BME280;20918;51.138;17.370;2023-03-18T16:26:49;100106.21;;;12.71;36.94
34696;BME280;20918;51.138;17.370;2023-03-18T16:29:50;100111.77;;;12.60;37.14
34696;BME280;20918;51.138;17.370;2023-03-18T16:32:51;100108.54;;;12.50;37.18
34696;BME280;20918;51.138;17.370;2023-03-18T16:35:56;100112.09;;;12.41;37.23
34696;BME280;20918;51.138;17.370;2023-03-18T16:39:00;100114.27;;;12.31;37.39
34696;BME280;20918;51.138;17.370;2023-03-18T16:42:12;100115.39;;;12.21;37.46
34696;BME280;20918;51.138;17.370;2023-03-18T16:45:13;100113.46;;;12.13;37.64
34696;BME280;20918;51.138;17.370;2023-03-18T16:48:18;100115.64;;;12.05;37.70
34696;BME280;20918;51.138;17.370;2023-03-18T16:51:19;100113.07;;;11.97;37.63
34696;BME280;20918;51.138;17.370;2023-03-18T16:54:29;100116.27;;;11.89;37.74
34696;BME280;20918;51.138;17.370;2023-03-18T16:57:45;100118.70;;;11.80;37.91
34696;BME280;20918;51.138;17.370;2023-03-18T17:00:46;100121.86;;;11.72;38.16
34696;BME280;20918;51.138;17.370;2023-03-18T17:03:48;100119.78;;;11.62;38.19
34696;BME280;20918;51.138;17.370;2023-03-18T17:06:49;100128.52;;;11.51;38.29
34696;BME280;20918;51.138;17.370;2023-03-18T17:09:50;100123.92;;;11.43;38.40
34696;BME280;20918;51.138;17.370;2023-03-18T17:13:38;100122.08;;;11.34;38.58
34696;BME280;20918;51.138;17.370;2023-03-18T17:16:19;100125.56;;;11.25;38.64
34696;BME280;20918;51.138;17.370;2023-03-18T17:19:20;100129.77;;;11.19;38.90
34696;BME280;20918;51.138;17.370;2023-03-18T17:22:23;100138.21;;;11.13;38.75
34696;BME280;20918;51.138;17.370;2023-03-18T17:25:25;100139.36;;;11.08;38.95
34696;BME280;20918;51.138;17.370;2023-03-18T17:28:36;100143.23;;;11.00;39.09
34696;BME280;20918;51.138;17.370;2023-03-18T17:31:38;100145.56;;;10.92;39.13
34696;BME280;20918;51.138;17.370;2023-03-18T17:34:38;100142.22;;;10.83;39.31
34696;BME280;20918;51.138;17.370;2023-03-18T17:37:40;100146.40;;;10.74;39.48
34696;BME280;20918;51.138;17.370;2023-03-18T17:40:41;100149.83;;;10.64;39.55
34696;BME280;20918;51.138;17.370;2023-03-18T17:43:42;100150.98;;;10.51;39.86
34696;BME280;20918;51.138;17.370;2023-03-18T17:46:43;100155.93;;;10.38;40.14
34696;BME280;20918;51.138;17.370;2023-03-18T17:49:44;100156.21;;;10.31;40.35
34696;BME280;20918;51.138;17.370;2023-03-18T17:52:44;100160.49;;;10.23;40.53
34696;BME280;20918;51.138;17.370;2023-03-18T17:55:47;100162.98;;;10.16;40.82